Time;durP1;ratioP1;P1;durP2;ratioP2;P2;SDS_P1;SDS_P2;PMS_P1;PMS_P2;Temp;Humidity;BMP_temperature;BMP_pressure;BME280_temperature;BME280_humidity;BME280_pressure;Samples;Min_cycle;Max_cycle;Signal;HPM_P1;HPM_P2
2023/03/04 00:02:27;;;;;;;;;;;1.67;10.72;;;;;;2671788;76;20337;-89
2023/03/04 00:05:55;;;;;;;;;;;1.67;10.43;;;;;;2670870;76;20375;-89
2023/03/04 00:09:26;;;;;;;;;;;1.62;10.27;;;;;;2669269;76;20369;-89
2023/03/04 00:12:54;;;;;;;;;;;1.58;10.25;;;;;;2670987;76;20331;-89
2023/03/04 00:16:22;;;;;;;;;;;1.56;10.69;;;;;;2673307;76;20325;-89
2023/03/04 00:19:50;;;;;;;;;;;1.53;10.51;;;;;;2673066;76;20339;-89
2023/03/04 00:23:18;;;;;;;;;;;1.52;10.41;;;;;;2673515;76;20345;-89
2023/03/04 00:26:46;;;;;;;;;;;1.50;10.10;;;;;;2672854;76;20325;-89
2023/03/04 00:30:14;;;;;;;;;;;1.47;10.57;;;;;;2673754;76;20364;-88
2023/03/04 00:33:43;;;;;;;;;;;1.43;10.97;;;;;;2672948;76;20360;-89
2023/03/04 00:37:11;;;;;;;;;;;1.43;10.89;;;;;;2673753;76;20368;-89
2023/03/04 00:40:39;;;;;;;;;;;1.43;10.75;;;;;;2673775;76;20379;-89
2023/03/04 00:44:07;;;;;;;;;;;1.46;10.93;;;;;;2671612;76;20319;-89
2023/03/04 00:47:35;;;;;;;;;;;1.39;10.94;;;;;;2673089;76;20401;-89
2023/03/04 00:51:03;;;;;;;;;;;1.38;10.63;;;;;;2673995;76;20876;-89
2023/03/04 00:54:31;;;;;;;;;;;1.38;10.27;;;;;;2671976;76;20350;-89
2023/03/04 00:58:00;;;;;;;;;;;1.36;10.36;;;;;;2671980;76;20444;-89
2023/03/04 01:01:28;;;;;;;;;;;1.28;10.55;;;;;;2672636;76;20340;-89
2023/03/04 01:04:56;;;;;;;;;;;1.22;10.68;;;;;;2672002;76;20366;-89
2023/03/04 01:08:24;;;;;;;;;;;1.17;11.20;;;;;;2671391;76;20364;-89
2023/03/04 01:11:52;;;;;;;;;;;1.16;12.02;;;;;;2672780;76;20316;-89
2023/03/04 01:15:20;;;;;;;;;;;1.12;12.69;;;;;;2672827;76;20361;-90
2023/03/04 01:18:48;;;;;;;;;;;1.14;12.56;;;;;;2671751;76;20763;-89
2023/03/04 01:22:17;;;;;;;;;;;1.13;12.55;;;;;;2673053;76;20855;-89
2023/03/04 01:25:45;;;;;;;;;;;1.14;11.93;;;;;;2673449;76;20371;-89
2023/03/04 01:29:14;;;;;;;;;;;1.13;11.40;;;;;;2672031;76;20324;-89
2023/03/04 01:32:42;;;;;;;;;;;1.10;11.37;;;;;;2673410;76;20335;-89
2023/03/04 01:36:14;;;;;;;;;;;1.10;11.25;;;;;;2673031;76;20311;-89
2023/03/04 01:39:42;;;;;;;;;;;1.08;11.01;;;;;;2671517;76;20804;-88
2023/03/04 01:43:10;;;;;;;;;;;1.08;10.78;;;;;;2673445;76;20335;-90
2023/03/04 01:46:38;;;;;;;;;;;1.04;10.87;;;;;;2673154;76;20781;-90
2023/03/04 01:50:06;;;;;;;;;;;1.01;11.05;;;;;;2670564;76;20909;-89
2023/03/04 01:53:34;;;;;;;;;;;1.01;11.15;;;;;;2672444;76;20342;-89
2023/03/04 01:57:02;;;;;;;;;;;0.92;11.45;;;;;;2673100;76;20316;-89
2023/03/04 02:00:30;;;;;;;;;;;0.95;12.04;;;;;;2671973;76;20307;-90
2023/03/04 02:03:59;;;;;;;;;;;0.94;11.99;;;;;;2672471;76;20358;-90
2023/03/04 02:07:27;;;;;;;;;;;0.95;11.40;;;;;;2672593;76;20324;-90
2023/03/04 02:10:55;;;;;;;;;;;0.94;11.15;;;;;;2673054;76;20717;-90
2023/03/04 02:14:23;;;;;;;;;;;0.94;11.20;;;;;;2672736;76;20750;-90
2023/03/04 02:17:51;;;;;;;;;;;0.92;11.02;;;;;;2672849;76;20340;-90
2023/03/04 02:21:19;;;;;;;;;;;0.91;10.88;;;;;;2672124;76;20310;-91
2023/03/04 02:24:47;;;;;;;;;;;0.88;11.01;;;;;;2672248;76;20353;-90
2023/03/04 02:28:15;;;;;;;;;;;0.81;12.47;;;;;;2672077;76;20320;-90
2023/03/04 02:31:43;;;;;;;;;;;0.83;12.87;;;;;;2673008;76;20312;-90
2023/03/04 02:35:11;;;;;;;;;;;0.84;13.00;;;;;;2673435;76;20638;-90
2023/03/04 02:38:40;;;;;;;;;;;0.89;13.00;;;;;;2672718;76;20761;-91
2023/03/04 02:42:08;;;;;;;;;;;0.87;13.37;;;;;;2673066;76;20318;-90
2023/03/04 02:45:36;;;;;;;;;;;0.92;12.84;;;;;;2673290;76;20301;-90
2023/03/04 02:49:04;;;;;;;;;;;0.89;12.45;;;;;;2671814;76;20304;-90
2023/03/04 02:52:32;;;;;;;;;;;0.87;12.13;;;;;;2672768;76;20341;-90
2023/03/04 02:56:00;;;;;;;;;;;0.84;12.49;;;;;;2673572;76;20295;-90
2023/03/04 02:59:36;;;;;;;;;;;0.84;12.33;;;;;;2673194;76;20787;-90
2023/03/04 03:02:58;;;;;;;;;;;0.82;11.85;;;;;;2672964;76;20342;-90
2023/03/04 03:06:26;;;;;;;;;;;0.81;11.34;;;;;;2673313;76;20301;-89
2023/03/04 03:09:54;;;;;;;;;;;0.76;11.25;;;;;;2672612;76;20338;-90
2023/03/04 03:13:23;;;;;;;;;;;0.69;11.33;;;;;;2672521;76;20365;-90
2023/03/04 03:16:51;;;;;;;;;;;0.69;11.37;;;;;;2672053;76;20766;-90
2023/03/04 03:20:19;;;;;;;;;;;0.68;11.57;;;;;;2672477;76;20338;-90
2023/03/04 03:23:48;;;;;;;;;;;0.65;11.74;;;;;;2673125;76;20348;-90
2023/03/04 03:27:16;;;;;;;;;;;0.68;11.63;;;;;;2672238;76;20304;-90
2023/03/04 03:30:44;;;;;;;;;;;0.68;11.65;;;;;;2672196;76;20349;-89
2023/03/04 03:34:12;;;;;;;;;;;0.67;11.77;;;;;;2674983;76;20302;-89
2023/03/04 03:37:40;;;;;;;;;;;0.67;11.95;;;;;;2676388;76;20437;-89
2023/03/04 03:41:08;;;;;;;;;;;0.62;12.62;;;;;;2678472;76;20762;-89
2023/03/04 03:44:36;;;;;;;;;;;0.61;12.77;;;;;;2672509;76;20775;-88
2023/03/04 03:48:04;;;;;;;;;;;0.61;13.01;;;;;;2672029;76;20347;-88
2023/03/04 03:51:32;;;;;;;;;;;0.52;13.43;;;;;;2671612;76;20388;-89
2023/03/04 03:55:00;;;;;;;;;;;0.58;13.31;;;;;;2673204;76;20330;-89
2023/03/04 03:58:28;;;;;;;;;;;0.45;13.85;;;;;;2672999;76;20317;-89
2023/03/04 04:01:57;;;;;;;;;;;0.39;14.75;;;;;;2673069;76;20401;-88
2023/03/04 04:05:25;;;;;;;;;;;0.49;13.83;;;;;;2672990;76;20353;-89
2023/03/04 04:08:53;;;;;;;;;;;0.52;13.07;;;;;;2671208;76;20307;-88
2023/03/04 04:12:26;;;;;;;;;;;0.51;12.70;;;;;;2673935;76;20317;-88
2023/03/04 04:15:51;;;;;;;;;;;0.50;12.17;;;;;;2673584;76;20410;-88
2023/03/04 04:19:19;;;;;;;;;;;0.49;11.77;;;;;;2672888;76;20353;-88
2023/03/04 04:22:47;;;;;;;;;;;0.45;11.69;;;;;;2673460;76;20333;-89
2023/03/04 04:26:15;;;;;;;;;;;0.43;11.65;;;;;;2673445;76;20305;-88
2023/03/04 04:29:43;;;;;;;;;;;0.42;11.80;;;;;;2673798;76;20369;-88
2023/03/04 04:33:11;;;;;;;;;;;0.37;11.94;;;;;;2674103;76;20323;-89
2023/03/04 04:36:39;;;;;;;;;;;0.33;11.73;;;;;;2672506;76;20346;-89
2023/03/04 04:40:08;;;;;;;;;;;0.29;11.72;;;;;;2673543;76;20328;-88
2023/03/04 04:43:36;;;;;;;;;;;0.28;11.44;;;;;;2673537;76;20348;-89
2023/03/04 04:47:05;;;;;;;;;;;0.30;11.45;;;;;;2672891;76;20332;-89
2023/03/04 04:50:33;;;;;;;;;;;0.27;11.27;;;;;;2672908;76;20313;-89
2023/03/04 04:54:04;;;;;;;;;;;0.29;11.20;;;;;;2673704;76;20375;-89
2023/03/04 04:57:32;;;;;;;;;;;0.27;11.11;;;;;;2673478;76;20320;-89
2023/03/04 05:01:00;;;;;;;;;;;0.22;11.09;;;;;;2672969;76;20301;-89
2023/03/04 05:04:28;;;;;;;;;;;0.23;11.10;;;;;;2673479;76;20317;-89
2023/03/04 05:07:56;;;;;;;;;;;0.20;11.09;;;;;;2673421;76;20795;-88
2023/03/04 05:11:24;;;;;;;;;;;0.50;12.95;;;;;;2672870;76;20352;-89
2023/03/04 05:14:53;;;;;;;;;;;0.54;14.53;;;;;;2672654;76;20311;-89
2023/03/04 05:18:21;;;;;;;;;;;0.39;13.91;;;;;;2673192;76;20314;-89
2023/03/04 05:21:49;;;;;;;;;;;0.32;13.47;;;;;;2671733;76;20325;-88
2023/03/04 05:25:17;;;;;;;;;;;0.25;13.02;;;;;;2672204;76;20321;-89
2023/03/04 05:28:45;;;;;;;;;;;0.23;12.93;;;;;;2672729;76;20826;-89
2023/03/04 05:32:13;;;;;;;;;;;0.25;13.23;;;;;;2672518;76;20325;-89
2023/03/04 05:35:41;;;;;;;;;;;0.24;12.88;;;;;;2673231;76;20323;-89
2023/03/04 05:39:09;;;;;;;;;;;0.22;12.89;;;;;;2672979;76;20320;-89
2023/03/04 05:42:37;;;;;;;;;;;0.17;12.78;;;;;;2673383;76;20315;-89
2023/03/04 05:46:05;;;;;;;;;;;0.19;12.56;;;;;;2673241;76;20812;-88
2023/03/04 05:49:34;;;;;;;;;;;0.20;12.58;;;;;;2672317;76;20405;-88
2023/03/04 05:53:05;;;;;;;;;;;0.17;12.65;;;;;;2673609;76;20373;-88
2023/03/04 05:56:33;;;;;;;;;;;0.14;13.05;;;;;;2673351;76;20829;-88
2023/03/04 06:00:01;;;;;;;;;;;0.18;12.95;;;;;;2673434;76;20327;-88
2023/03/04 06:03:29;;;;;;;;;;;0.20;12.92;;;;;;2673135;76;20330;-89
2023/03/04 06:06:57;;;;;;;;;;;0.21;13.18;;;;;;2672588;76;20330;-89
2023/03/04 06:10:25;;;;;;;;;;;0.28;12.93;;;;;;2673437;76;20332;-88
2023/03/04 06:13:53;;;;;;;;;;;0.35;12.77;;;;;;2673209;76;20325;-89
2023/03/04 06:17:21;;;;;;;;;;;0.44;12.39;;;;;;2673371;76;20309;-88
2023/03/04 06:20:49;;;;;;;;;;;0.49;12.33;;;;;;2672507;76;20776;-88
2023/03/04 06:24:17;;;;;;;;;;;0.57;12.42;;;;;;2673247;76;20828;-89
2023/03/04 06:27:46;;;;;;;;;;;0.60;12.89;;;;;;2673180;76;20357;-89
2023/03/04 06:31:14;;;;;;;;;;;0.67;13.14;;;;;;2671426;76;20396;-88
2023/03/04 06:34:42;;;;;;;;;;;0.74;13.35;;;;;;2671824;76;20301;-88
2023/03/04 06:38:10;;;;;;;;;;;0.78;13.71;;;;;;2669358;76;20314;-88
2023/03/04 06:41:38;;;;;;;;;;;0.89;13.94;;;;;;2672247;76;20325;-89
2023/03/04 06:45:06;;;;;;;;;;;1.05;13.53;;;;;;2672289;76;20341;-88
2023/03/04 06:48:34;;;;;;;;;;;1.17;13.52;;;;;;2672543;76;20916;-88
2023/03/04 06:52:02;;;;;;;;;;;1.26;13.70;;;;;;2670832;76;20371;-88
2023/03/04 06:55:30;;;;;;;;;;;1.33;13.87;;;;;;2672767;76;20322;-89
2023/03/04 06:58:59;;;;;;;;;;;1.53;13.94;;;;;;2671753;76;20329;-89
2023/03/04 07:02:27;;;;;;;;;;;1.60;14.00;;;;;;2669432;76;20357;-89
2023/03/04 07:05:55;;;;;;;;;;;1.68;14.20;;;;;;2669615;76;20874;-89
2023/03/04 07:09:23;;;;;;;;;;;1.82;14.28;;;;;;2672444;76;20348;-90
2023/03/04 07:12:51;;;;;;;;;;;1.72;14.68;;;;;;2672516;76;20344;-88
2023/03/04 07:16:19;;;;;;;;;;;1.82;14.74;;;;;;2672189;76;20307;-89
2023/03/04 07:19:47;;;;;;;;;;;1.93;14.87;;;;;;2672387;76;20330;-88
2023/03/04 07:23:15;;;;;;;;;;;1.95;15.12;;;;;;2670538;76;20382;-89
2023/03/04 07:26:43;;;;;;;;;;;1.99;14.81;;;;;;2671388;76;20330;-89
2023/03/04 07:30:11;;;;;;;;;;;2.00;15.29;;;;;;2673232;76;20344;-89
2023/03/04 07:33:40;;;;;;;;;;;1.93;15.40;;;;;;2673001;76;20652;-88
2023/03/04 07:37:08;;;;;;;;;;;1.84;15.86;;;;;;2672214;76;20355;-88
2023/03/04 07:40:36;;;;;;;;;;;1.84;16.07;;;;;;2671908;76;20351;-88
2023/03/04 07:44:04;;;;;;;;;;;1.84;16.35;;;;;;2671966;76;20371;-88
2023/03/04 07:47:32;;;;;;;;;;;1.79;16.19;;;;;;2672318;76;20317;-88
2023/03/04 07:51:00;;;;;;;;;;;1.80;16.65;;;;;;2672520;76;20359;-87
2023/03/04 07:54:33;;;;;;;;;;;1.81;16.33;;;;;;2673038;76;20749;-88
2023/03/04 07:57:58;;;;;;;;;;;1.70;16.80;;;;;;2672398;76;20322;-87
2023/03/04 08:01:31;;;;;;;;;;;1.73;16.86;;;;;;2672507;76;20346;-91
2023/03/04 08:04:59;;;;;;;;;;;1.93;16.80;;;;;;2673176;76;20330;-91
2023/03/04 08:08:28;;;;;;;;;;;2.07;16.35;;;;;;2672441;76;20819;-90
2023/03/04 08:12:10;;;;;;;;;;;1.98;16.25;;;;;;2669060;76;20377;-91
2023/03/04 08:15:38;;;;;;;;;;;2.12;16.56;;;;;;2672500;76;20321;-92
2023/03/04 08:19:06;;;;;;;;;;;2.20;16.78;;;;;;2671436;76;20799;-91
2023/03/04 08:22:38;;;;;;;;;;;2.24;16.16;;;;;;2672301;76;20363;-91
2023/03/04 08:26:06;;;;;;;;;;;2.42;16.26;;;;;;2673453;76;20333;-91
2023/03/04 08:29:35;;;;;;;;;;;2.23;16.00;;;;;;2672759;76;21028;-91
2023/03/04 08:33:03;;;;;;;;;;;2.30;16.16;;;;;;2673059;76;20830;-91
2023/03/04 08:36:31;;;;;;;;;;;2.68;16.14;;;;;;2673714;76;20347;-91
2023/03/04 08:39:59;;;;;;;;;;;2.47;15.39;;;;;;2674389;76;20319;-91
2023/03/04 08:43:27;;;;;;;;;;;2.60;15.51;;;;;;2672456;76;20367;-92
2023/03/04 08:46:55;;;;;;;;;;;2.55;15.24;;;;;;2673342;76;20763;-91
2023/03/04 08:50:26;;;;;;;;;;;2.73;15.21;;;;;;2673169;76;20750;-91
2023/03/04 08:53:53;;;;;;;;;;;2.93;15.14;;;;;;2671501;76;20755;-91
2023/03/04 08:57:22;;;;;;;;;;;3.17;14.64;;;;;;2672179;76;20330;-92
2023/03/04 09:00:50;;;;;;;;;;;3.05;14.19;;;;;;2672473;76;20355;-91
2023/03/04 09:04:18;;;;;;;;;;;3.13;14.11;;;;;;2672924;76;20761;-92
2023/03/04 09:07:46;;;;;;;;;;;3.41;13.74;;;;;;2672434;76;20752;-91
2023/03/04 09:11:14;;;;;;;;;;;3.20;12.98;;;;;;2672860;76;20334;-92
2023/03/04 09:14:42;;;;;;;;;;;3.24;12.54;;;;;;2673536;76;20327;-92
2023/03/04 09:18:10;;;;;;;;;;;3.41;12.51;;;;;;2673991;76;20331;-92
2023/03/04 09:22:02;;;;;;;;;;;3.61;12.20;;;;;;2672130;76;20367;-92
2023/03/04 09:25:29;;;;;;;;;;;3.76;12.02;;;;;;2673321;76;20350;-92
2023/03/04 09:28:58;;;;;;;;;;;3.78;11.46;;;;;;2673702;76;20317;-92
2023/03/04 09:32:27;;;;;;;;;;;3.91;10.74;;;;;;2673320;76;20301;-92
2023/03/04 09:35:57;;;;;;;;;;;3.92;10.09;;;;;;2673244;76;20322;-92
2023/03/04 09:39:25;;;;;;;;;;;3.88;9.83;;;;;;2673954;76;20349;-92
2023/03/04 09:42:53;;;;;;;;;;;4.01;9.55;;;;;;2673465;76;20325;-91
2023/03/04 09:46:24;;;;;;;;;;;4.05;9.16;;;;;;2673160;76;20340;-92
2023/03/04 09:49:52;;;;;;;;;;;4.13;8.64;;;;;;2673395;76;20308;-92
2023/03/04 09:53:20;;;;;;;;;;;4.06;8.63;;;;;;2673822;76;20660;-92
2023/03/04 09:56:51;;;;;;;;;;;4.34;8.60;;;;;;2673002;76;20367;-91
2023/03/04 10:00:19;;;;;;;;;;;4.63;8.65;;;;;;2673219;76;20327;-92
2023/03/04 10:03:47;;;;;;;;;;;4.67;8.17;;;;;;2673467;76;20340;-92
2023/03/04 10:07:15;;;;;;;;;;;4.96;8.29;;;;;;2672994;76;20329;-92
2023/03/04 10:10:44;;;;;;;;;;;5.02;7.93;;;;;;2673174;76;20800;-92
2023/03/04 10:14:12;;;;;;;;;;;5.24;7.43;;;;;;2673631;76;20385;-91
2023/03/04 10:17:41;;;;;;;;;;;5.35;7.24;;;;;;2672922;76;20358;-92
2023/03/04 10:21:09;;;;;;;;;;;5.07;6.84;;;;;;2673568;76;20336;-92
2023/03/04 10:24:37;;;;;;;;;;;5.37;7.08;;;;;;2673357;76;20328;-92
2023/03/04 10:28:05;;;;;;;;;;;5.09;6.45;;;;;;2672908;76;20356;-92
2023/03/04 10:31:36;;;;;;;;;;;5.30;6.14;;;;;;2672893;76;20333;-91
2023/03/04 10:35:04;;;;;;;;;;;5.11;4.45;;;;;;2674128;76;20337;-92
2023/03/04 10:38:33;;;;;;;;;;;5.35;4.99;;;;;;2674675;76;20356;-92
2023/03/04 10:42:03;;;;;;;;;;;5.42;4.68;;;;;;2674479;76;20309;-92
2023/03/04 10:45:34;;;;;;;;;;;5.36;4.10;;;;;;2674908;76;20315;-92
2023/03/04 10:49:00;;;;;;;;;;;5.33;4.20;;;;;;2674582;76;20310;-92
2023/03/04 10:52:28;;;;;;;;;;;5.55;4.38;;;;;;2674516;76;20314;-92
2023/03/04 10:55:57;;;;;;;;;;;5.67;3.81;;;;;;2674549;76;20332;-91
2023/03/04 10:59:25;;;;;;;;;;;5.72;3.58;;;;;;2674513;76;20378;-91
2023/03/04 11:02:53;;;;;;;;;;;5.89;3.30;;;;;;2674408;76;20472;-90
2023/03/04 11:06:21;;;;;;;;;;;5.95;2.87;;;;;;2674755;76;20361;-92
2023/03/04 11:09:49;;;;;;;;;;;5.78;2.61;;;;;;2674447;76;20314;-92
2023/03/04 11:13:19;;;;;;;;;;;5.89;2.28;;;;;;2674685;76;20360;-91
2023/03/04 11:16:47;;;;;;;;;;;5.97;1.84;;;;;;2674833;76;20330;-92
2023/03/04 11:20:15;;;;;;;;;;;5.94;0.86;;;;;;2674731;76;20346;-92
2023/03/04 11:23:43;;;;;;;;;;;6.07;0.46;;;;;;2673894;76;20332;-92
2023/03/04 11:27:11;;;;;;;;;;;5.90;-0.01;;;;;;2674595;76;20365;-92
2023/03/04 11:30:39;;;;;;;;;;;6.02;-0.58;;;;;;2674174;76;20326;-92
2023/03/04 11:34:08;;;;;;;;;;;6.19;-0.53;;;;;;2674397;76;20319;-92
2023/03/04 11:37:36;;;;;;;;;;;6.28;-0.77;;;;;;2673794;76;20772;-91
2023/03/04 11:41:04;;;;;;;;;;;6.28;-1.49;;;;;;2675083;76;20648;-93
2023/03/04 11:44:32;;;;;;;;;;;6.52;-1.37;;;;;;2675421;76;20341;-91
2023/03/04 11:48:00;;;;;;;;;;;6.51;-1.51;;;;;;2677433;76;20409;-93
2023/03/04 11:51:28;;;;;;;;;;;6.48;-1.30;;;;;;2674554;76;20295;-92
2023/03/04 11:54:56;;;;;;;;;;;6.22;-1.11;;;;;;2675079;76;20321;-92
2023/03/04 11:58:24;;;;;;;;;;;6.23;-0.47;;;;;;2675178;76;20362;-92
2023/03/04 12:01:52;;;;;;;;;;;6.39;0.08;;;;;;2675104;76;20343;-92
2023/03/04 12:05:30;;;;;;;;;;;6.28;-0.25;;;;;;2673786;76;20325;-91
2023/03/04 12:09:06;;;;;;;;;;;6.28;0.26;;;;;;2674248;76;20321;-88
2023/03/04 12:12:36;;;;;;;;;;;6.27;0.09;;;;;;2674523;76;20768;-92
2023/03/04 12:16:05;;;;;;;;;;;6.33;0.04;;;;;;2674180;76;20514;-92
2023/03/04 12:19:33;;;;;;;;;;;6.43;-0.34;;;;;;2674095;76;20784;-92
2023/03/04 12:23:01;;;;;;;;;;;6.68;-0.16;;;;;;2674357;76;20383;-91
2023/03/04 12:26:30;;;;;;;;;;;6.55;-1.03;;;;;;2674012;76;20381;-91
2023/03/04 12:29:58;;;;;;;;;;;6.30;-1.14;;;;;;2673350;76;20342;-91
2023/03/04 12:33:26;;;;;;;;;;;6.16;-0.80;;;;;;2674975;76;20353;-91
2023/03/04 12:36:55;;;;;;;;;;;6.16;-0.02;;;;;;2674587;76;20356;-91
2023/03/04 12:40:23;;;;;;;;;;;5.94;0.00;;;;;;2674027;76;20338;-91
2023/03/04 12:43:51;;;;;;;;;;;5.79;-0.08;;;;;;2674328;76;20353;-90
2023/03/04 12:47:19;;;;;;;;;;;6.11;0.12;;;;;;2675753;76;20316;-93
2023/03/04 12:50:51;;;;;;;;;;;6.11;0.13;;;;;;2676599;76;20392;-93
2023/03/04 12:54:19;;;;;;;;;;;5.97;0.66;;;;;;2675496;76;20353;-90
2023/03/04 12:57:47;;;;;;;;;;;5.83;0.48;;;;;;2674578;76;20384;-90
2023/03/04 13:01:15;;;;;;;;;;;6.04;0.89;;;;;;2673761;76;20340;-90
2023/03/04 13:04:43;;;;;;;;;;;6.00;1.00;;;;;;2674312;76;20351;-93
2023/03/04 13:08:12;;;;;;;;;;;5.86;0.74;;;;;;2675313;76;20332;-91
2023/03/04 13:11:40;;;;;;;;;;;5.82;0.31;;;;;;2674830;76;20361;-92
2023/03/04 13:15:08;;;;;;;;;;;5.98;1.11;;;;;;2676936;76;20340;-93
2023/03/04 13:18:38;;;;;;;;;;;5.59;1.00;;;;;;2677529;76;20348;-91
2023/03/04 13:22:14;;;;;;;;;;;5.48;1.88;;;;;;2675599;76;20496;-95
2023/03/04 13:25:46;;;;;;;;;;;5.75;1.35;;;;;;2674437;76;20401;-90
2023/03/04 13:29:09;;;;;;;;;;;5.54;1.04;;;;;;2673333;76;20351;-90
2023/03/04 13:32:40;;;;;;;;;;;5.50;1.42;;;;;;2673933;76;20369;-91
2023/03/04 13:36:20;;;;;;;;;;;5.66;0.58;;;;;;2674306;76;20383;-91
2023/03/04 13:39:51;;;;;;;;;;;5.67;0.52;;;;;;2674211;76;20357;-91
2023/03/04 13:43:18;;;;;;;;;;;5.67;0.52;;;;;;2674202;76;20360;-91
2023/03/04 13:46:54;;;;;;;;;;;5.67;0.52;;;;;;2674431;76;20380;-91
2023/03/04 13:50:27;;;;;;;;;;;5.72;0.10;;;;;;2674132;76;20360;-91
2023/03/04 13:54:08;;;;;;;;;;;5.64;-0.02;;;;;;2674943;76;20363;-91
2023/03/04 13:57:46;;;;;;;;;;;;;;;;;;;;;
2023/03/04 14:01:13;;;;;;;;;;;5.39;-0.35;;;;;;2673557;76;20787;-87
2023/03/04 14:04:41;;;;;;;;;;;5.41;0.45;;;;;;2672420;76;20773;-88
2023/03/04 14:08:09;;;;;;;;;;;5.36;0.28;;;;;;2672944;76;20787;-88
2023/03/04 14:11:39;;;;;;;;;;;5.23;-0.09;;;;;;2672757;76;20400;-88
2023/03/04 14:15:07;;;;;;;;;;;5.11;-0.34;;;;;;2672263;76;20346;-88
2023/03/04 14:18:35;;;;;;;;;;;5.49;-0.03;;;;;;2672641;76;20327;-88
2023/03/04 14:22:04;;;;;;;;;;;5.53;-0.29;;;;;;2672135;76;20339;-88
2023/03/04 14:25:32;;;;;;;;;;;5.54;-0.31;;;;;;2671903;76;21022;-88
2023/03/04 14:29:01;;;;;;;;;;;5.38;-0.86;;;;;;2673169;76;20675;-88
2023/03/04 14:32:29;;;;;;;;;;;5.54;-0.49;;;;;;2672797;76;20345;-87
2023/03/04 14:35:57;;;;;;;;;;;5.70;-1.07;;;;;;2673269;76;20355;-89
2023/03/04 14:39:25;;;;;;;;;;;5.71;-1.74;;;;;;2672723;76;20339;-87
2023/03/04 14:42:54;;;;;;;;;;;5.53;-2.20;;;;;;2672269;76;20493;-88
2023/03/04 14:46:22;;;;;;;;;;;5.28;-1.74;;;;;;2673142;76;20791;-87
2023/03/04 14:49:50;;;;;;;;;;;5.36;-0.93;;;;;;2672178;76;20343;-87
2023/03/04 14:53:21;;;;;;;;;;;5.47;-1.56;;;;;;2671992;76;20343;-89
2023/03/04 14:56:50;;;;;;;;;;;5.32;-2.22;;;;;;2671382;76;20361;-88
2023/03/04 15:00:18;;;;;;;;;;;5.15;-1.88;;;;;;2672012;76;20369;-89
2023/03/04 15:03:46;;;;;;;;;;;4.83;-1.28;;;;;;2671993;76;20362;-88
2023/03/04 15:07:14;;;;;;;;;;;4.72;-0.91;;;;;;2671495;76;20319;-87
2023/03/04 15:10:42;;;;;;;;;;;4.98;-1.35;;;;;;2672670;76;20386;-87
2023/03/04 15:14:10;;;;;;;;;;;5.01;-1.74;;;;;;2672651;76;20373;-87
2023/03/04 15:17:41;;;;;;;;;;;4.60;-1.35;;;;;;2673102;76;20378;-87
2023/03/04 15:21:09;;;;;;;;;;;4.67;-0.86;;;;;;2672102;76;20405;-89
2023/03/04 15:24:40;;;;;;;;;;;4.79;-1.45;;;;;;2672207;76;20363;-89
2023/03/04 15:28:07;;;;;;;;;;;4.67;-1.92;;;;;;2671512;76;20828;-88
2023/03/04 15:31:35;;;;;;;;;;;4.64;-1.80;;;;;;2673162;76;20364;-89
2023/03/04 15:35:09;;;;;;;;;;;4.61;-1.56;;;;;;2674148;76;20396;-88
2023/03/04 15:38:38;;;;;;;;;;;4.63;-1.48;;;;;;2671175;76;20358;-88
2023/03/04 15:42:06;;;;;;;;;;;6.89;-0.71;;;;;;2672333;76;20369;-87
2023/03/04 15:45:37;;;;;;;;;;;9.14;116.97;;;;;;2673130;76;20394;-86
2023/03/04 15:49:06;;;;;;;;;;;9.95;112.54;;;;;;2671733;76;20699;-86
2023/03/04 15:52:35;;;;;;;;;;;10.16;110.94;;;;;;2670840;76;20678;-88
2023/03/04 15:56:03;;;;;;;;;;;8.74;110.40;;;;;;2673088;76;20378;-87
2023/03/04 15:59:31;;;;;;;;;;;6.30;113.90;;;;;;2672118;76;20455;-86
2023/03/04 16:03:02;;;;;;;;;;;4.76;117.05;;;;;;2672890;76;20403;-87
2023/03/04 16:06:30;;;;;;;;;;;4.47;-5.50;;;;;;2672443;76;20350;-87
2023/03/04 16:09:58;;;;;;;;;;;4.13;-4.54;;;;;;2671853;76;20360;-87
2023/03/04 16:13:27;;;;;;;;;;;3.91;-4.28;;;;;;2671273;76;20761;-86
2023/03/04 16:16:55;;;;;;;;;;;3.70;-3.84;;;;;;2671766;76;20356;-87
2023/03/04 16:20:23;;;;;;;;;;;3.34;-3.00;;;;;;2671030;76;20351;-86
2023/03/04 16:23:51;;;;;;;;;;;3.16;-2.97;;;;;;2672000;76;20818;-86
2023/03/04 16:27:21;;;;;;;;;;;2.78;-2.14;;;;;;2671766;76;20370;-87
2023/03/04 16:30:49;;;;;;;;;;;2.67;-1.31;;;;;;2671537;76;20365;-86
2023/03/04 16:34:17;;;;;;;;;;;2.68;-0.46;;;;;;2672910;76;20326;-87
2023/03/04 16:37:45;;;;;;;;;;;2.57;-0.68;;;;;;2672905;76;20484;-86
2023/03/04 16:41:13;;;;;;;;;;;2.56;-0.45;;;;;;2672874;76;20354;-87
2023/03/04 16:44:41;;;;;;;;;;;2.41;0.28;;;;;;2669945;76;20367;-86
2023/03/04 16:48:09;;;;;;;;;;;2.42;0.52;;;;;;2672161;76;20341;-87
2023/03/04 16:51:37;;;;;;;;;;;2.46;0.38;;;;;;2672327;76;20357;-87
2023/03/04 16:55:05;;;;;;;;;;;2.44;0.28;;;;;;2671948;76;20331;-87
2023/03/04 16:58:34;;;;;;;;;;;2.39;0.77;;;;;;2672365;76;20398;-87
2023/03/04 17:02:02;;;;;;;;;;;2.16;1.10;;;;;;2672147;76;20386;-88
2023/03/04 17:05:30;;;;;;;;;;;2.32;1.24;;;;;;2671879;76;20377;-87
2023/03/04 17:08:58;;;;;;;;;;;2.36;0.99;;;;;;2669194;76;20378;-88
2023/03/04 17:12:26;;;;;;;;;;;2.31;0.85;;;;;;2672558;76;20338;-88
2023/03/04 17:15:54;;;;;;;;;;;2.25;1.23;;;;;;2671314;76;20340;-87
2023/03/04 17:19:22;;;;;;;;;;;2.29;1.28;;;;;;2672067;76;20363;-87
2023/03/04 17:22:50;;;;;;;;;;;2.05;1.29;;;;;;2667298;76;20361;-86
2023/03/04 17:26:21;;;;;;;;;;;2.15;1.34;;;;;;2671464;76;20354;-86
2023/03/04 17:29:52;;;;;;;;;;;2.21;1.13;;;;;;2671494;76;20785;-88
2023/03/04 17:33:21;;;;;;;;;;;2.17;0.87;;;;;;2670660;76;20847;-88
2023/03/04 17:36:49;;;;;;;;;;;2.02;1.12;;;;;;2671366;76;20625;-88
2023/03/04 17:40:17;;;;;;;;;;;2.03;1.23;;;;;;2673550;76;20339;-88
2023/03/04 17:43:45;;;;;;;;;;;1.99;1.39;;;;;;2673138;76;20391;-87
2023/03/04 17:47:14;;;;;;;;;;;1.93;1.59;;;;;;2673740;76;20352;-86
2023/03/04 17:50:42;;;;;;;;;;;1.92;1.68;;;;;;2672653;76;20370;-86
2023/03/04 17:54:10;;;;;;;;;;;1.80;1.44;;;;;;2673474;76;20788;-86
2023/03/04 17:57:39;;;;;;;;;;;1.84;1.81;;;;;;2673702;76;20786;-88
2023/03/04 18:01:07;;;;;;;;;;;1.76;1.55;;;;;;2673039;76;20338;-87
2023/03/04 18:04:35;;;;;;;;;;;1.69;1.70;;;;;;2673383;76;21026;-89
2023/03/04 18:08:03;;;;;;;;;;;1.57;1.91;;;;;;2673982;76;20804;-88
2023/03/04 18:11:31;;;;;;;;;;;1.49;2.30;;;;;;2673775;76;20327;-88
2023/03/04 18:14:59;;;;;;;;;;;1.40;2.68;;;;;;2673428;76;20373;-88
2023/03/04 18:18:27;;;;;;;;;;;1.57;2.58;;;;;;2673929;76;20352;-88
2023/03/04 18:21:55;;;;;;;;;;;1.53;2.47;;;;;;2673897;76;20357;-88
2023/03/04 18:25:23;;;;;;;;;;;1.49;2.71;;;;;;2673626;76;20355;-88
2023/03/04 18:28:51;;;;;;;;;;;1.66;2.71;;;;;;2672885;76;20347;-87
2023/03/04 18:32:19;;;;;;;;;;;1.80;2.38;;;;;;2672418;76;20382;-87
2023/03/04 18:35:47;;;;;;;;;;;1.55;1.84;;;;;;2671980;76;20336;-88
2023/03/04 18:39:16;;;;;;;;;;;1.70;2.32;;;;;;2672347;76;20382;-87
2023/03/04 18:42:44;;;;;;;;;;;1.49;2.34;;;;;;2673469;76;20829;-89
2023/03/04 18:46:13;;;;;;;;;;;1.72;2.41;;;;;;2672784;76;20381;-88
2023/03/04 18:49:41;;;;;;;;;;;1.51;2.52;;;;;;2673725;76;20345;-88
2023/03/04 18:53:09;;;;;;;;;;;1.52;2.35;;;;;;2671758;76;20355;-85
2023/03/04 18:56:37;;;;;;;;;;;1.33;2.16;;;;;;2669953;76;20866;-87
2023/03/04 19:00:05;;;;;;;;;;;1.26;2.04;;;;;;2671371;76;20388;-86
2023/03/04 19:03:35;;;;;;;;;;;1.46;2.38;;;;;;2673293;76;20338;-87
2023/03/04 19:07:03;;;;;;;;;;;1.53;2.12;;;;;;2671352;76;20382;-87
2023/03/04 19:10:31;;;;;;;;;;;1.49;1.90;;;;;;2672165;76;20358;-88
2023/03/04 19:13:59;;;;;;;;;;;1.56;2.29;;;;;;2672004;76;20338;-85
2023/03/04 19:17:34;;;;;;;;;;;1.46;2.08;;;;;;2672761;76;20355;-85
2023/03/04 19:20:57;;;;;;;;;;;1.34;1.88;;;;;;2669662;76;20358;-85
2023/03/04 19:24:25;;;;;;;;;;;1.24;2.42;;;;;;2670651;76;20394;-85
2023/03/04 19:27:55;;;;;;;;;;;1.35;2.71;;;;;;2670982;76;20358;-85
2023/03/04 19:31:31;;;;;;;;;;;1.33;2.80;;;;;;2670314;76;20379;-86
2023/03/04 19:35:05;;;;;;;;;;;1.34;3.12;;;;;;2669403;76;20420;-85
2023/03/04 19:38:34;;;;;;;;;;;1.38;3.33;;;;;;2670915;76;20347;-85
2023/03/04 19:42:02;;;;;;;;;;;1.36;3.25;;;;;;2670222;76;20369;-86
2023/03/04 19:45:30;;;;;;;;;;;1.47;3.41;;;;;;2669414;76;20351;-84
2023/03/04 19:48:58;;;;;;;;;;;1.64;3.07;;;;;;2669179;76;20357;-83
2023/03/04 19:52:26;;;;;;;;;;;1.68;2.72;;;;;;2670562;76;20373;-84
2023/03/04 19:55:54;;;;;;;;;;;1.65;2.77;;;;;;2670748;76;20339;-83
2023/03/04 19:59:22;;;;;;;;;;;1.71;2.80;;;;;;2670686;76;20345;-84
2023/03/04 20:02:58;;;;;;;;;;;1.68;2.74;;;;;;2670702;76;20360;-87
2023/03/04 20:06:25;;;;;;;;;;;1.66;2.96;;;;;;2669942;76;20327;-87
2023/03/04 20:09:59;;;;;;;;;;;1.65;3.13;;;;;;2671381;76;20378;-87
2023/03/04 20:13:34;;;;;;;;;;;1.72;3.10;;;;;;2669116;76;20345;-87
2023/03/04 20:17:05;;;;;;;;;;;1.68;2.91;;;;;;2670092;76;20324;-87
2023/03/04 20:20:33;;;;;;;;;;;1.69;2.87;;;;;;2669372;76;20373;-87
2023/03/04 20:24:09;;;;;;;;;;;1.67;2.91;;;;;;2668125;76;20335;-87
2023/03/04 20:27:34;;;;;;;;;;;1.64;2.87;;;;;;2666530;76;20784;-87
2023/03/04 20:31:20;;;;;;;;;;;1.67;3.00;;;;;;2671089;76;20910;-87
2023/03/04 20:34:42;;;;;;;;;;;1.56;3.03;;;;;;2671596;76;20485;-87
2023/03/04 20:38:10;;;;;;;;;;;1.61;3.10;;;;;;2670774;76;20384;-87
2023/03/04 20:41:47;;;;;;;;;;;1.70;3.16;;;;;;2670866;76;20840;-87